Flight Track Log - Related Links

Times and Time Zones

All times are in EDT time to prevent confusion due to time zone crossing. See the N373LD flight status page for this flight to view local times or setup timezone preferences in your user account.

Time Position Orientation Groundspeed Altitude Reporting Facility
EDT Latitude Longitude Course Direction KTS MPH feet Rate Location/Type
Fri 06:58:56 PM 46.2736 -106.1500 230° Southwest 142 163 11,400  Level Salt Lake Center
Fri 06:59:57 PM 46.2469 -106.1992 232° Southwest 151 174 12,800 1,366 Climbing Salt Lake Center
Fri 07:00:59 PM 46.2208 -106.2442 230° Southwest 150 173 14,200 1,317 Climbing Salt Lake Center
Fri 07:01:00 PM 46.1926 -106.2623 229° Southwest  Level FlightAware Approximate
Fri 07:02:00 PM 46.1549 -106.3251 229° Southwest  Level FlightAware Approximate
Fri 07:02:00 PM 46.1950 -106.2886 230° Southwest 148 170 15,500  Level Salt Lake Center
Fri 07:03:00 PM 46.1208 -106.3918 234° Southwest  Level FlightAware Approximate
Fri 07:03:02 PM 46.1667 -106.3336 228° Southwest 149 171 16,700  Level Salt Lake Center
Fri 07:04:03 PM 46.1406 -106.3833 233° Southwest 153 176 18,200 1,317 Climbing Salt Lake Center
Fri 07:05:05 PM 46.1131 -106.4297 229° Southwest 153 176 19,400 878 Climbing Salt Lake Center
Fri 07:06:06 PM 46.0828 -106.4808 230° Southwest 163 188 20,000 293 Climbing Salt Lake Center
Fri 07:07:08 PM 46.0389 -106.5547 229° Southwest 199 229 20,000  Level Salt Lake Center
Fri 07:08:09 PM 46.0003 -106.6208 230° Southwest 212 244 20,000  Level Salt Lake Center
Fri 07:09:11 PM 45.9608 -106.6878 230° Southwest 218 251 20,000  Level Salt Lake Center
Fri 07:10:12 PM 45.9211 -106.7561 230° Southwest 219 252 20,000  Level Salt Lake Center
Fri 07:11:13 PM 45.8817 -106.8211 229° Southwest 219 252 20,000  Level Salt Lake Center
Fri 07:12:15 PM 45.8436 -106.8881 231° Southwest 219 252 20,000  Level Salt Lake Center
Fri 07:13:16 PM 45.8031 -106.9536 228° Southwest 220 253 20,000  Level Salt Lake Center
Fri 07:14:18 PM 45.7636 -107.0217 230° Southwest 221 254 20,000  Level Salt Lake Center
Fri 07:15:19 PM 45.7156 -107.0983 228° Southwest 220 253 20,000  Level Salt Lake Center
Fri 07:16:21 PM 45.6753 -107.1683 231° Southwest 223 257 20,000  Level Salt Lake Center
Fri 07:17:22 PM 45.6339 -107.2364 229° Southwest 228 262 20,000  Level Salt Lake Center
Fri 07:18:24 PM 45.5936 -107.3017 229° Southwest 224 258 20,000  Level Salt Lake Center
Fri 07:19:25 PM 45.5539 -107.3683 230° Southwest 223 257 20,000  Level Salt Lake Center
Fri 07:20:27 PM 45.5133 -107.4361 230° Southwest 223 257 20,000  Level Salt Lake Center
Fri 07:21:28 PM 45.4731 -107.5033 230° Southwest 224 258 20,000  Level Salt Lake Center
Fri 07:22:30 PM 45.4244 -107.5811 228° Southwest 222 255 20,000  Level Salt Lake Center
Fri 07:23:31 PM 45.3836 -107.6481 229° Southwest 225 259 20,000  Level Salt Lake Center
Fri 07:24:33 PM 45.3422 -107.7161 229° Southwest 226 260 20,000  Level Salt Lake Center
Fri 07:25:34 PM 45.2978 -107.7889 229° Southwest 228 262 20,000  Level Salt Lake Center
Fri 07:26:36 PM 45.2547 -107.8558 228° Southwest 230 265 20,000  Level Salt Lake Center
Fri 07:27:37 PM 45.2108 -107.9300 230° Southwest 230 265 20,000  Level Salt Lake Center
Fri 07:28:39 PM 45.1706 -107.9947 229° Southwest 227 261 20,000  Level Salt Lake Center
Fri 07:29:41 PM 45.1297 -108.0608 229° Southwest 226 260 20,000  Level Salt Lake Center
Fri 07:30:42 PM 45.0847 -108.1317 228° Southwest 226 260 20,000  Level Salt Lake Center
Fri 07:31:44 PM 45.0461 -108.1983 231° Southwest 224 258 20,000  Level Salt Lake Center
Fri 07:32:45 PM 45.0039 -108.2647 228° Southwest 224 258 20,000  Level Salt Lake Center
Fri 07:33:47 PM 44.9614 -108.3331 229° Southwest 229 264 20,000  Level Salt Lake Center
Fri 07:34:49 PM 44.9200 -108.3986 228° Southwest 228 262 20,000  Level Salt Lake Center
Fri 07:35:50 PM 44.8792 -108.4622 228° Southwest 225 259 20,000  Level Salt Lake Center
Fri 07:36:52 PM 44.8300 -108.5411 229° Southwest 223 257 20,000 -390 Level Salt Lake Center
Fri 07:37:53 PM 44.7892 -108.6056 228° Southwest 223 257 19,200 -1,317 Descending Salt Lake Center
Fri 07:38:55 PM 44.7489 -108.6681 228° Southwest 222 255 17,300 -1,839 Descending Salt Lake Center
Fri 07:39:57 PM 44.7094 -108.7300 228° Southwest 219 252 15,400 -1,854 Descending Salt Lake Center
Fri 07:40:58 PM 44.6711 -108.7911 229° Southwest 216 249 13,500 -1,869 Descending Salt Lake Center

Login

Don't have an account? Register now (free) for customized features, flight alerts, and more!